Time;durP1;ratioP1;P1;durP2;ratioP2;P2;SDS_P1;SDS_P2;PMS_P1;PMS_P2;Temp;Humidity;BMP_temperature;BMP_pressure;BME280_temperature;BME280_humidity;BME280_pressure;Samples;Min_cycle;Max_cycle;Signal;HPM_P1;HPM_P2
2023/11/16 00:00:11;;;;;;;1999.90;999.90;;;;;;;10.85;59.79;96171.34;5134903;27;20082;-66
2023/11/16 00:02:41;;;;;;;1999.90;999.90;;;;;;;10.79;57.73;96175.06;5135029;27;20438;-65
2023/11/16 00:05:11;;;;;;;1999.90;999.90;;;;;;;10.82;57.63;96171.47;5134896;27;20047;-64
2023/11/16 00:07:40;;;;;;;1999.90;999.90;;;;;;;10.85;57.12;96161.72;5134799;27;20047;-64
2023/11/16 00:10:10;;;;;;;1999.90;999.90;;;;;;;10.88;59.20;96165.97;5134765;27;20054;-64
2023/11/16 00:12:37;;;;;;;1999.90;999.90;;;;;;;10.83;58.00;96176.63;5134701;27;20039;-65
2023/11/16 00:15:06;;;;;;;1999.90;999.90;;;;;;;10.83;58.10;96187.09;5134675;27;20044;-65
2023/11/16 00:17:33;;;;;;;1999.90;999.90;;;;;;;10.82;59.08;96190.66;5134828;27;20058;-62
2023/11/16 00:20:02;;;;;;;1999.90;999.90;;;;;;;10.76;59.28;96195.28;5134576;27;20459;-65
2023/11/16 00:22:29;;;;;;;1999.90;999.90;;;;;;;10.74;58.91;96193.59;5134775;27;20130;-64
2023/11/16 00:24:56;;;;;;;1999.90;999.90;;;;;;;10.73;57.58;96184.06;5134597;27;20062;-64
2023/11/16 00:27:26;;;;;;;1999.90;999.90;;;;;;;10.74;58.33;96183.13;5134473;27;20148;-65
2023/11/16 00:29:53;;;;;;;1999.90;999.90;;;;;;;10.76;58.93;96183.06;5134429;27;20404;-65
2023/11/16 00:32:20;;;;;;;1999.90;999.90;;;;;;;10.72;58.21;96191.97;5134365;27;20047;-64
2023/11/16 00:34:47;;;;;;;1999.90;999.90;;;;;;;10.66;58.21;96200.09;5134091;27;20501;-63
2023/11/16 00:37:15;;;;;;;1999.90;999.90;;;;;;;10.68;57.30;96206.94;5134448;27;20047;-65
2023/11/16 00:39:43;;;;;;;1999.90;999.90;;;;;;;10.75;56.88;96207.53;5134191;27;20480;-66
2023/11/16 00:42:10;;;;;;;1999.90;999.90;;;;;;;10.73;57.08;96204.97;5134340;27;20485;-66
2023/11/16 00:44:37;;;;;;;1999.90;999.90;;;;;;;10.72;58.11;96207.66;5134276;27;20520;-64
2023/11/16 00:47:05;;;;;;;1999.90;999.90;;;;;;;10.77;57.30;96203.06;5134129;27;20051;-63
2023/11/16 00:49:32;;;;;;;1999.90;999.90;;;;;;;10.74;57.37;96193.59;5134483;27;20043;-66
2023/11/16 00:51:59;;;;;;;1999.90;999.90;;;;;;;10.69;58.39;96198.16;5134565;27;20051;-63
2023/11/16 00:54:27;;;;;;;1999.90;999.90;;;;;;;10.68;55.76;96191.25;5134099;27;20043;-64
2023/11/16 00:56:54;;;;;;;1999.90;999.90;;;;;;;10.68;57.50;96190.38;5134390;27;20399;-64
2023/11/16 00:59:22;;;;;;;1999.90;999.90;;;;;;;10.58;57.24;96190.81;5133494;27;20100;-64
2023/11/16 01:01:50;;;;;;;1999.90;999.90;;;;;;;10.60;56.88;96183.72;5134052;28;20039;-64
2023/11/16 01:04:19;;;;;;;1999.90;999.90;;;;;;;10.66;54.51;96179.16;5134052;27;20520;-65
2023/11/16 01:06:46;;;;;;;1999.90;999.90;;;;;;;10.69;53.80;96173.78;5134320;27;20063;-66
2023/11/16 01:09:13;;;;;;;1999.90;999.90;;;;;;;10.71;53.94;96154.50;5133994;27;20432;-64
2023/11/16 01:11:41;;;;;;;1999.90;999.90;;;;;;;10.70;54.50;96141.47;5134123;27;20147;-66
2023/11/16 01:14:09;;;;;;;1999.90;999.90;;;;;;;10.67;54.39;96144.22;5133932;28;20046;-65
2023/11/16 01:16:40;;;;;;;1999.90;999.90;;;;;;;10.61;53.68;96155.81;5134167;27;20130;-65
2023/11/16 01:19:08;;;;;;;1999.90;999.90;;;;;;;10.63;53.40;96168.81;5133834;28;20450;-65
2023/11/16 01:21:41;;;;;;;1999.90;999.90;;;;;;;10.61;53.06;96171.50;5133755;28;20055;-64
2023/11/16 01:24:09;;;;;;;1999.90;999.90;;;;;;;10.63;52.91;96176.69;5133898;28;20160;-65
2023/11/16 01:26:39;;;;;;;1999.90;999.90;;;;;;;10.60;52.04;96186.34;5134058;27;20047;-63
2023/11/16 01:29:09;;;;;;;1999.90;999.90;;;;;;;10.55;52.86;96190.94;5133800;28;20044;-64
2023/11/16 01:31:39;;;;;;;1999.90;999.90;;;;;;;10.51;52.65;96189.38;5133743;27;20058;-65
2023/11/16 01:34:09;;;;;;;1999.90;999.90;;;;;;;10.53;52.99;96194.53;5133719;27;20443;-64
2023/11/16 01:36:37;;;;;;;1999.90;999.90;;;;;;;10.48;53.09;96197.34;5133573;28;20128;-63
2023/11/16 01:39:04;;;;;;;1999.90;999.90;;;;;;;10.45;53.90;96210.53;5133656;27;20050;-64
2023/11/16 01:41:32;;;;;;;1999.90;999.90;;;;;;;10.34;53.03;96203.13;5133663;28;20047;-65
2023/11/16 01:44:00;;;;;;;1999.90;999.90;;;;;;;10.19;53.32;96196.78;5133610;27;20096;-65
2023/11/16 01:46:31;;;;;;;1999.90;999.90;;;;;;;10.16;52.29;96208.22;5133651;28;20193;-64
2023/11/16 01:48:59;;;;;;;1999.90;999.90;;;;;;;10.13;52.88;96203.13;5133838;27;20457;-64
2023/11/16 01:51:28;;;;;;;1999.90;999.90;;;;;;;10.07;53.40;96198.16;5133615;28;20078;-63
2023/11/16 01:53:58;;;;;;;1999.90;999.90;;;;;;;10.07;52.85;96208.59;5133497;28;20074;-64
2023/11/16 01:56:28;;;;;;;1999.90;999.90;;;;;;;9.99;52.42;96199.31;5133576;28;20048;-66
2023/11/16 01:58:59;;;;;;;1999.90;999.90;;;;;;;9.98;52.57;96202.00;5133873;27;20050;-65
2023/11/16 02:01:29;;;;;;;1999.90;999.90;;;;;;;9.97;53.00;96205.53;5133611;27;20050;-63
2023/11/16 02:03:56;;;;;;;;;;;;;;;9.86;52.61;96198.97;5133892;28;20057;-65
2023/11/16 02:06:23;;;;;;;1999.90;999.90;;;;;;;9.85;52.18;96202.47;5133627;28;19919;-65
2023/11/16 02:08:50;;;;;;;1999.90;999.90;;;;;;;9.79;53.45;96191.44;5133461;28;20074;-64
2023/11/16 02:11:17;;;;;;;1999.90;999.90;;;;;;;9.72;52.51;96186.47;5133437;27;20075;-63
2023/11/16 02:13:44;;;;;;;1999.90;999.90;;;;;;;9.75;52.13;96192.50;5137079;27;20127;-65
2023/11/16 02:16:12;;;;;;;1999.90;999.90;;;;;;;9.74;52.55;96191.63;5137066;27;20500;-64
2023/11/16 02:18:41;;;;;;;1999.90;999.90;;;;;;;9.72;53.68;96194.31;5137339;27;20121;-65
2023/11/16 02:21:08;;;;;;;1999.90;999.90;;;;;;;9.67;52.19;96191.03;5136972;27;20553;-64
2023/11/16 02:23:38;;;;;;;1999.90;999.90;;;;;;;9.68;52.45;96210.16;5137253;27;20095;-64
2023/11/16 02:26:07;;;;;;;1999.90;999.90;;;;;;;9.61;51.86;96206.94;5136930;27;20043;-63
2023/11/16 02:28:34;;;;;;;1999.90;999.90;;;;;;;9.61;52.42;96218.22;5136798;27;20047;-64
2023/11/16 02:31:04;;;;;;;1999.90;999.90;;;;;;;9.59;51.48;96219.19;5136672;27;20158;-63
2023/11/16 02:33:32;;;;;;;1999.90;999.90;;;;;;;9.60;51.47;96223.50;5137015;27;20062;-66
2023/11/16 02:35:59;;;;;;;1999.90;999.90;;;;;;;9.59;51.99;96233.13;5136565;27;20132;-64
2023/11/16 02:38:26;;;;;;;1999.90;999.90;;;;;;;9.46;53.52;96216.22;5136507;27;20079;-64
2023/11/16 02:40:54;;;;;;;1999.90;999.90;;;;;;;9.30;53.52;96231.63;5136564;27;20051;-65
2023/11/16 02:43:22;;;;;;;1999.90;999.90;;;;;;;9.12;54.58;96238.38;5136482;27;20043;-65
2023/11/16 02:45:49;;;;;;;1999.90;999.90;;;;;;;9.04;53.48;96241.28;5136538;27;20047;-65
2023/11/16 02:48:16;;;;;;;1999.90;999.90;;;;;;;8.96;55.26;96239.81;5136608;27;20134;-64
2023/11/16 02:50:44;;;;;;;1999.90;999.90;;;;;;;8.81;56.39;96242.94;5136242;27;20043;-66
2023/11/16 02:53:11;;;;;;;1999.90;999.90;;;;;;;8.69;57.28;96239.03;5136574;27;20058;-64
2023/11/16 02:55:39;;;;;;;1999.90;999.90;;;;;;;8.52;57.87;96252.63;5136280;27;20408;-65
2023/11/16 02:58:07;;;;;;;1999.90;999.90;;;;;;;8.40;58.02;96249.50;5136219;27;20064;-64
2023/11/16 03:00:34;;;;;;;1999.90;999.90;;;;;;;8.30;57.57;96254.19;5136364;27;20098;-63
2023/11/16 03:03:02;;;;;;;1999.90;999.90;;;;;;;8.20;57.10;96244.97;5136009;27;20493;-63
2023/11/16 03:05:29;;;;;;;1999.90;999.90;;;;;;;8.08;57.10;96243.63;5136119;27;20043;-64
2023/11/16 03:07:56;;;;;;;1999.90;999.90;;;;;;;8.04;57.14;96252.47;5136017;27;20092;-65
2023/11/16 03:10:24;;;;;;;1999.90;999.90;;;;;;;8.03;57.59;96264.63;5136036;27;20121;-65
2023/11/16 03:12:52;;;;;;;1999.90;999.90;;;;;;;8.04;57.80;96250.69;5135970;27;20124;-63
2023/11/16 03:15:21;;;;;;;1999.90;999.90;;;;;;;8.05;58.83;96251.56;5135804;27;20054;-65
2023/11/16 03:17:47;;;;;;;1999.90;999.90;;;;;;;8.01;59.59;96248.19;5135638;27;20096;-63
2023/11/16 03:20:16;;;;;;;1999.90;999.90;;;;;;;7.93;59.93;96238.03;5135956;27;20403;-65
2023/11/16 03:22:43;;;;;;;1999.90;999.90;;;;;;;7.57;60.88;96252.16;5135358;27;20082;-64
2023/11/16 03:25:11;;;;;;;1999.90;999.90;;;;;;;7.42;61.61;96258.69;5135623;27;20135;-65
2023/11/16 03:27:38;;;;;;;1999.90;999.90;;;;;;;7.31;62.44;96253.78;5135551;27;20058;-66
2023/11/16 03:30:06;;;;;;;1999.90;999.90;;;;;;;7.17;62.59;96264.59;5135628;27;20043;-65
2023/11/16 03:32:35;;;;;;;1999.90;999.90;;;;;;;7.04;63.20;96265.81;5135491;27;20039;-65
2023/11/16 03:35:03;;;;;;;1999.90;999.90;;;;;;;6.84;64.28;96267.25;5135270;27;20127;-63
2023/11/16 03:37:31;;;;;;;1999.90;999.90;;;;;;;6.77;64.09;96271.75;5135597;27;20428;-65
2023/11/16 03:39:58;;;;;;;1999.90;999.90;;;;;;;6.68;64.89;96269.41;5135441;27;20122;-65
2023/11/16 03:42:25;;;;;;;1999.90;999.90;;;;;;;6.53;65.02;96268.91;5135285;27;20560;-63
2023/11/16 03:44:52;;;;;;;1999.90;999.90;;;;;;;6.32;65.65;96263.38;5135392;27;20082;-64
2023/11/16 03:47:19;;;;;;;1999.90;999.90;;;;;;;6.15;66.67;96278.53;5135341;27;20047;-65
2023/11/16 03:49:48;;;;;;;1999.90;999.90;;;;;;;6.12;66.91;96295.06;5135229;27;20138;-63
2023/11/16 03:52:15;;;;;;;1999.90;999.90;;;;;;;6.12;67.62;96296.81;5135502;27;20054;-64
2023/11/16 03:54:42;;;;;;;1999.90;999.90;;;;;;;6.02;68.15;96307.38;5134939;27;20484;-62
2023/11/16 03:57:11;;;;;;;1999.90;999.90;;;;;;;6.03;69.03;96308.22;5135279;27;20040;-64
2023/11/16 03:59:38;;;;;;;1999.90;999.90;;;;;;;6.02;68.32;96304.78;5135039;27;20079;-64
2023/11/16 04:02:05;;;;;;;1999.90;999.90;;;;;;;5.86;68.12;96301.69;5135036;27;20122;-65
2023/11/16 04:04:32;;;;;;;1999.90;999.90;;;;;;;5.94;68.58;96302.34;5134924;27;20043;-65
2023/11/16 04:07:01;;;;;;;1999.90;999.90;;;;;;;6.03;68.73;96308.22;5134766;27;20465;-63
2023/11/16 04:09:28;;;;;;;1999.90;999.90;;;;;;;6.26;66.93;96304.28;5134768;27;20051;-64
2023/11/16 04:11:57;;;;;;;1999.90;999.90;;;;;;;6.35;65.56;96298.81;5134896;27;20043;-65
2023/11/16 04:14:24;;;;;;;1999.90;999.90;;;;;;;6.49;64.64;96297.63;5134652;27;20069;-63
2023/11/16 04:16:53;;;;;;;1999.90;999.90;;;;;;;6.67;63.72;96297.16;5134773;27;20463;-63
2023/11/16 04:19:21;;;;;;;1999.90;999.90;;;;;;;6.98;61.24;96294.63;5134695;27;20039;-65
2023/11/16 04:21:50;;;;;;;1999.90;999.90;;;;;;;7.12;63.55;96297.69;5134707;27;20078;-64
2023/11/16 04:24:22;;;;;;;1999.90;999.90;;;;;;;7.04;64.08;96302.25;5134802;27;20054;-64
2023/11/16 04:26:49;;;;;;;1999.90;999.90;;;;;;;7.06;63.25;96314.34;5134414;27;20047;-64
2023/11/16 04:29:17;;;;;;;1999.90;999.90;;;;;;;7.14;62.32;96327.13;5134542;27;20047;-65
2023/11/16 04:31:45;;;;;;;1999.90;999.90;;;;;;;7.34;61.23;96343.91;5134692;27;20087;-65
2023/11/16 04:34:12;;;;;;;1999.90;999.90;;;;;;;7.56;60.25;96348.53;5133716;27;20043;-65
2023/11/16 04:36:41;;;;;;;1999.90;999.90;;;;;;;7.77;58.88;96354.00;5134097;27;20420;-64
2023/11/16 04:39:08;;;;;;;1999.90;999.90;;;;;;;8.00;58.40;96348.06;5134275;27;20043;-64
2023/11/16 04:41:37;;;;;;;1999.90;999.90;;;;;;;8.09;57.67;96349.53;5134228;27;20043;-63
2023/11/16 04:44:05;;;;;;;1999.90;999.90;;;;;;;8.16;57.07;96343.22;5134247;27;20043;-65
2023/11/16 04:46:32;;;;;;;1999.90;999.90;;;;;;;8.24;57.58;96353.41;5134347;27;20043;-63
2023/11/16 04:48:59;;;;;;;1999.90;999.90;;;;;;;8.30;56.21;96347.16;5134220;27;20055;-64
2023/11/16 04:51:26;;;;;;;1999.90;999.90;;;;;;;8.34;56.23;96341.81;5134077;27;20046;-63
2023/11/16 04:53:54;;;;;;;1999.90;999.90;;;;;;;8.39;56.20;96346.88;5134156;27;20054;-64
2023/11/16 04:56:21;;;;;;;1999.90;999.90;;;;;;;8.47;56.79;96364.88;5134246;27;20080;-65
2023/11/16 04:58:50;;;;;;;1999.90;999.90;;;;;;;8.45;56.20;96356.25;5134097;27;20401;-63
2023/11/16 05:01:17;;;;;;;1999.90;999.90;;;;;;;8.50;55.69;96350.88;5134038;28;20104;-63
2023/11/16 05:03:45;;;;;;;1999.90;999.90;;;;;;;8.54;55.38;96355.97;5134053;27;20124;-65
2023/11/16 05:06:13;;;;;;;1999.90;999.90;;;;;;;8.59;55.78;96351.47;5133887;27;20039;-65
2023/11/16 05:08:41;;;;;;;1999.90;999.90;;;;;;;8.63;55.66;96364.38;5133983;27;20476;-63
2023/11/16 05:11:09;;;;;;;1999.90;999.90;;;;;;;8.61;55.74;96367.03;5134280;28;20039;-63
2023/11/16 05:13:36;;;;;;;1999.90;999.90;;;;;;;8.61;55.42;96379.25;5133919;27;20496;-64
2023/11/16 05:16:08;;;;;;;1999.90;999.90;;;;;;;8.65;55.00;96368.66;5134064;27;20059;-64
2023/11/16 05:18:35;;;;;;;1999.90;999.90;;;;;;;8.68;55.15;96383.34;5133975;28;20046;-65
2023/11/16 05:21:03;;;;;;;1999.90;999.90;;;;;;;8.84;54.49;96388.91;5133890;27;20043;-65
2023/11/16 05:23:30;;;;;;;1999.90;999.90;;;;;;;8.90;54.51;96388.72;5133896;27;20054;-63
2023/11/16 05:25:58;;;;;;;1999.90;999.90;;;;;;;8.94;54.84;96390.31;5133927;28;20047;-65
2023/11/16 05:28:26;;;;;;;1999.90;999.90;;;;;;;9.02;54.51;96389.19;5133997;27;20043;-65
2023/11/16 05:30:53;;;;;;;1999.90;999.90;;;;;;;8.95;55.25;96399.00;5133764;28;20044;-64
2023/11/16 05:33:22;;;;;;;1999.90;999.90;;;;;;;8.96;54.95;96401.56;5133722;28;20051;-63
2023/11/16 05:35:51;;;;;;;1999.90;999.90;;;;;;;9.00;54.83;96407.50;5133465;27;20049;-65
2023/11/16 05:38:18;;;;;;;1999.90;999.90;;;;;;;9.00;54.29;96404.06;5133657;28;20488;-65
2023/11/16 05:40:46;;;;;;;1999.90;999.90;;;;;;;9.12;54.28;96415.84;5133602;27;20500;-65
2023/11/16 05:43:13;;;;;;;1999.90;999.90;;;;;;;9.18;53.84;96428.69;5133635;27;20492;-62
2023/11/16 05:45:40;;;;;;;1999.90;999.90;;;;;;;9.21;54.04;96432.03;5134540;27;20086;-63
2023/11/16 05:48:08;;;;;;;1999.90;999.90;;;;;;;9.31;52.97;96429.09;5137618;27;20123;-65
2023/11/16 05:50:38;;;;;;;1999.90;999.90;;;;;;;9.47;53.71;96427.66;5137511;27;20043;-63
2023/11/16 05:53:06;;;;;;;1999.90;999.90;;;;;;;10.50;50.92;96449.19;5137447;27;20043;-65
2023/11/16 05:55:34;;;;;;;1999.90;999.90;;;;;;;11.77;48.84;96444.00;5137378;27;20046;-65
2023/11/16 05:58:01;;;;;;;1999.90;999.90;;;;;;;12.94;45.17;96457.03;5137576;27;20552;-66
2023/11/16 06:00:28;;;;;;;1999.90;999.90;;;;;;;14.22;42.34;96461.94;5137325;27;20135;-65
2023/11/16 06:02:55;;;;;;;1999.90;999.90;;;;;;;15.19;40.66;96458.41;5137217;27;20130;-63
2023/11/16 06:05:24;;;;;;;1999.90;999.90;;;;;;;15.83;38.79;96465.25;5137379;27;20054;-64
2023/11/16 06:07:53;;;;;;;1999.90;999.90;;;;;;;16.63;36.50;96461.25;5137256;27;20116;-62
2023/11/16 06:10:20;;;;;;;1999.90;999.90;;;;;;;17.60;35.80;96468.22;5137133;27;20092;-63
2023/11/16 06:12:47;;;;;;;1999.90;999.90;;;;;;;17.29;34.85;96477.28;5137099;27;20079;-64
2023/11/16 06:15:15;;;;;;;1999.90;999.90;;;;;;;17.41;34.98;96472.13;5136926;27;20042;-66
2023/11/16 06:17:43;;;;;;;1999.90;999.90;;;;;;;18.01;34.01;96471.63;5136952;27;20485;-64
2023/11/16 06:20:12;;;;;;;1999.90;999.90;;;;;;;17.76;34.65;96471.53;5137010;27;20039;-65
2023/11/16 06:22:39;;;;;;;1999.90;999.90;;;;;;;18.35;33.39;96479.03;5136970;27;20515;-61
2023/11/16 06:25:10;;;;;;;1999.90;999.90;;;;;;;19.06;32.86;96476.59;5136840;27;20400;-63
2023/11/16 06:27:38;;;;;;;1999.90;999.90;;;;;;;20.17;31.29;96471.03;5136767;27;20093;-65
2023/11/16 06:30:07;;;;;;;1999.90;999.90;;;;;;;21.05;30.40;96480.13;5136855;27;20047;-64
2023/11/16 06:32:37;;;;;;;1999.90;999.90;;;;;;;21.58;28.75;96489.94;5136736;27;20050;-65
2023/11/16 06:35:05;;;;;;;1999.90;999.90;;;;;;;22.29;28.58;96508.06;5136663;27;20043;-66
2023/11/16 06:37:32;;;;;;;1999.90;999.90;;;;;;;22.44;27.60;96509.41;5136581;27;20047;-65
2023/11/16 06:39:59;;;;;;;1999.90;999.90;;;;;;;22.04;26.97;96494.19;5136744;27;20047;-63
2023/11/16 06:42:29;;;;;;;1999.90;999.90;;;;;;;22.46;27.27;96504.75;5136721;27;20071;-62
2023/11/16 06:44:56;;;;;;;1999.90;999.90;;;;;;;20.90;28.34;96532.72;5136434;27;20092;-63
2023/11/16 06:47:25;;;;;;;1999.90;999.90;;;;;;;21.52;28.50;96551.66;5136577;27;20043;-63
2023/11/16 06:49:52;;;;;;;1999.90;999.90;;;;;;;21.50;28.09;96542.13;5136361;27;20541;-64
2023/11/16 06:52:20;;;;;;;1999.90;999.90;;;;;;;21.38;27.81;96560.78;5136292;27;20118;-62
2023/11/16 06:54:47;;;;;;;1999.90;999.90;;;;;;;20.78;28.63;96556.66;5136358;27;20722;-65
2023/11/16 06:57:15;;;;;;;1999.90;999.90;;;;;;;21.40;27.97;96573.97;5135286;27;20557;-65
2023/11/16 06:59:44;;;;;;;1999.90;999.90;;;;;;;21.66;27.70;96562.97;5136205;27;20400;-63
2023/11/16 07:02:11;;;;;;;1999.90;999.90;;;;;;;23.06;26.34;96571.66;5136191;27;20054;-64
2023/11/16 07:04:41;;;;;;;1999.90;999.90;;;;;;;23.60;25.04;96568.69;5136192;27;20481;-66
2023/11/16 07:07:09;;;;;;;1999.90;999.90;;;;;;;23.84;24.33;96572.75;5136251;27;20051;-65
2023/11/16 07:09:36;;;;;;;1999.90;999.90;;;;;;;23.57;25.22;96568.97;5136004;27;20472;-64
2023/11/16 07:12:05;;;;;;;1999.90;999.90;;;;;;;24.11;24.55;96580.03;5136065;27;20134;-64
2023/11/16 07:14:32;;;;;;;49.00;46.40;;;;;;;24.24;24.43;96589.59;5135812;27;20511;-62
2023/11/16 07:17:01;;;;;;;48.22;45.28;;;;;;;22.90;25.17;96569.50;5135825;27;20051;-66
2023/11/16 07:19:30;;;;;;;1999.90;999.90;;;;;;;22.34;25.63;96567.94;5136074;27;20186;-65
2023/11/16 07:21:59;;;;;;;1999.90;999.90;;;;;;;23.17;25.64;96573.34;5135439;27;20550;-63
2023/11/16 07:24:27;;;;;;;1999.90;999.90;;;;;;;22.92;25.60;96587.03;5135756;27;20047;-66
2023/11/16 07:26:55;;;;;;;53.83;50.72;;;;;;;23.01;25.23;96584.53;5135704;27;20279;-66
2023/11/16 07:29:23;;;;;;;49.58;46.88;;;;;;;24.04;24.21;96578.06;5135706;27;20047;-64
2023/11/16 07:31:50;;;;;;;44.33;41.92;;;;;;;24.31;23.98;96589.84;5135580;27;20416;-65
2023/11/16 07:34:19;;;;;;;48.33;45.63;;;;;;;23.58;23.80;96565.28;5135887;27;20077;-64
2023/11/16 07:36:47;;;;;;;45.78;43.33;;;;;;;23.02;24.84;96586.25;5135329;27;20050;-64
2023/11/16 07:39:14;;;;;;;45.78;43.30;;;;;;;22.58;25.26;96593.47;5135330;27;20134;-64
2023/11/16 07:41:41;;;;;;;52.17;49.38;;;;;;;22.52;25.28;96598.47;5135685;27;20073;-65
2023/11/16 07:44:09;;;;;;;44.40;41.92;;;;;;;23.03;25.76;96593.25;5135281;27;20492;-65
2023/11/16 07:46:36;;;;;;;51.08;48.33;;;;;;;23.42;24.16;96590.69;5135280;27;20096;-63
2023/11/16 07:49:03;;;;;;;44.30;41.92;;;;;;;23.56;23.73;96599.28;5135474;27;20043;-64
2023/11/16 07:51:32;;;;;;;41.88;39.58;;;;;;;23.53;23.57;96610.22;5135151;27;20113;-62
2023/11/16 07:54:03;;;;;;;52.92;49.83;;;;;;;22.24;25.52;96609.66;5135149;27;20565;-65
2023/11/16 07:56:31;;;;;;;49.75;47.05;;;;;;;22.02;25.44;96608.81;5135104;27;20092;-64
2023/11/16 07:58:59;;;;;;;49.50;46.80;;;;;;;22.12;25.44;96616.03;5134969;27;20432;-62
2023/11/16 08:01:29;;;;;;;57.83;54.65;;;;;;;21.52;26.08;96618.16;5134979;27;20092;-65
2023/11/16 08:03:56;;;;;;;59.47;56.17;;;;;;;20.91;27.53;96601.72;5135036;27;20123;-64
2023/11/16 08:06:25;;;;;;;1999.90;999.90;;;;;;;20.56;27.83;96600.84;5134773;27;20039;-62
2023/11/16 08:08:53;;;;;;;1999.90;999.90;;;;;;;20.44;28.87;96604.47;5134717;27;20045;-66
2023/11/16 08:11:21;;;;;;;1999.90;999.90;;;;;;;20.38;28.65;96613.72;5134804;27;20043;-62
2023/11/16 08:13:48;;;;;;;1999.90;999.90;;;;;;;20.00;28.16;96617.47;5134651;27;20043;-63
2023/11/16 08:16:19;;;;;;;1999.90;999.90;;;;;;;19.12;30.13;96621.16;5134670;27;20111;-63
2023/11/16 08:18:47;;;;;;;1999.90;999.90;;;;;;;18.93;30.56;96605.66;5134755;27;20043;-62
2023/11/16 08:21:14;;;;;;;1999.90;999.90;;;;;;;18.35;31.10;96606.13;5134810;27;20113;-63
2023/11/16 08:23:43;;;;;;;1999.90;999.90;;;;;;;18.31;31.58;96601.03;5134849;27;20121;-65
2023/11/16 08:26:13;;;;;;;1999.90;999.90;;;;;;;18.17;32.55;96606.44;5134576;27;20075;-65
2023/11/16 08:28:42;;;;;;;1999.90;999.90;;;;;;;17.76;32.08;96600.31;5134478;27;20053;-62
2023/11/16 08:31:12;;;;;;;1999.90;999.90;;;;;;;17.26;32.61;96598.22;5134370;27;20043;-64
2023/11/16 08:33:39;;;;;;;1999.90;999.90;;;;;;;17.12;33.05;96604.38;5134346;27;20134;-61
2023/11/16 08:36:10;;;;;;;1999.90;999.90;;;;;;;16.90;33.34;96603.06;5134025;27;20055;-65
2023/11/16 08:38:41;;;;;;;1999.90;999.90;;;;;;;16.76;33.81;96609.19;5134329;27;20047;-65
2023/11/16 08:41:15;;;;;;;1999.90;999.90;;;;;;;16.33;35.37;96600.34;5134382;27;20043;-65
2023/11/16 08:43:42;;;;;;;1999.90;999.90;;;;;;;16.31;34.35;96598.75;5134253;27;20070;-67
2023/11/16 08:46:10;;;;;;;1999.90;999.90;;;;;;;16.08;34.99;96599.19;5134331;27;20050;-65
2023/11/16 08:48:43;;;;;;;1999.90;999.90;;;;;;;16.01;35.12;96595.19;5134233;27;20130;-65
2023/11/16 08:51:15;;;;;;;1999.90;999.90;;;;;;;15.90;35.32;96595.81;5134360;27;20066;-65
2023/11/16 08:53:43;;;;;;;1999.90;999.90;;;;;;;15.69;35.18;96598.78;5134099;27;20043;-65
2023/11/16 08:56:14;;;;;;;1999.90;999.90;;;;;;;15.63;37.12;96604.41;5133917;27;20564;-63
2023/11/16 08:58:47;;;;;;;1999.90;999.90;;;;;;;15.47;35.98;96605.25;5134114;27;20051;-63
2023/11/16 09:01:17;;;;;;;1999.90;999.90;;;;;;;15.52;35.85;96605.84;5134089;27;20572;-65
2023/11/16 09:03:49;;;;;;;1999.90;999.90;;;;;;;15.55;35.65;96612.72;5134045;28;20051;-64
2023/11/16 09:06:18;;;;;;;1999.90;999.90;;;;;;;15.56;36.64;96610.97;5134044;28;20039;-65
2023/11/16 09:08:45;;;;;;;1999.90;999.90;;;;;;;15.63;36.70;96614.94;5133943;28;20047;-64
2023/11/16 09:11:17;;;;;;;1999.90;999.90;;;;;;;15.56;35.95;96608.31;5133931;27;20047;-66
2023/11/16 09:13:45;;;;;;;1999.90;999.90;;;;;;;15.63;36.47;96607.84;5134149;27;20077;-64
2023/11/16 09:16:15;;;;;;;1999.90;999.90;;;;;;;15.56;36.12;96608.31;5133903;27;20450;-65
2023/11/16 09:18:45;;;;;;;1999.90;999.90;;;;;;;15.73;36.72;96615.25;5133905;28;20050;-66
2023/11/16 09:21:14;;;;;;;1999.90;999.90;;;;;;;15.77;35.42;96614.97;5135656;27;20118;-66
2023/11/16 09:23:41;;;;;;;1999.90;999.90;;;;;;;15.42;34.93;96612.59;5138148;27;20078;-62
2023/11/16 09:26:09;;;;;;;1999.90;999.90;;;;;;;15.03;36.29;96620.81;5138150;27;20047;-63
2023/11/16 09:28:39;;;;;;;1999.90;999.90;;;;;;;14.59;37.12;96608.25;5137978;27;20057;-65
2023/11/16 09:31:11;;;;;;;1999.90;999.90;;;;;;;14.34;37.74;96613.03;5138271;27;20126;-63
2023/11/16 09:33:40;;;;;;;1999.90;999.90;;;;;;;14.46;37.37;96603.66;5137985;27;20088;-63
2023/11/16 09:36:10;;;;;;;1999.90;999.90;;;;;;;14.68;37.31;96626.19;5137851;27;20436;-65
2023/11/16 09:38:37;;;;;;;1999.90;999.90;;;;;;;14.81;36.70;96617.69;5137819;27;20051;-64
2023/11/16 09:41:15;;;;;;;1999.90;999.90;;;;;;;14.93;37.48;96605.63;5137653;27;20074;-63
2023/11/16 09:43:51;;;;;;;1999.90;999.90;;;;;;;15.07;36.57;96599.59;5137743;27;20049;-63
2023/11/16 09:46:19;;;;;;;1999.90;999.90;;;;;;;14.93;36.24;96610.91;5137681;27;20051;-64
2023/11/16 09:48:47;;;;;;;1999.90;999.90;;;;;;;14.82;36.74;96598.31;5137478;27;20100;-63
2023/11/16 09:51:18;;;;;;;1999.90;999.90;;;;;;;14.97;36.59;96602.75;5137662;27;20166;-63
2023/11/16 09:53:50;;;;;;;;;;;;;;;15.06;36.53;96609.28;5137912;27;20047;-64
2023/11/16 09:56:27;;;;;;;1999.90;999.90;;;;;;;15.08;37.12;96598.66;5137437;27;20265;-65
2023/11/16 09:59:02;;;;;;;1999.90;999.90;;;;;;;15.10;36.66;96600.28;5137717;27;20043;-65
2023/11/16 10:01:32;;;;;;;1999.90;999.90;;;;;;;15.25;37.63;96603.84;5137429;27;20047;-64
2023/11/16 10:04:01;;;;;;;1999.90;999.90;;;;;;;15.32;35.70;96598.25;5137322;27;20408;-63
2023/11/16 10:06:33;;;;;;;1999.90;999.90;;;;;;;15.28;35.90;96602.81;5137243;27;20047;-65
2023/11/16 10:09:12;;;;;;;1999.90;999.90;;;;;;;15.34;35.29;96598.97;5137358;27;20047;-63
2023/11/16 10:11:40;;;;;;;1999.90;999.90;;;;;;;15.29;35.44;96586.91;5137245;27;20058;-62
2023/11/16 10:14:09;;;;;;;1999.90;999.90;;;;;;;15.33;35.50;96578.84;5137220;27;20047;-63
2023/11/16 10:16:36;;;;;;;1999.90;999.90;;;;;;;15.33;36.03;96574.44;5136985;27;20094;-63
2023/11/16 10:19:06;;;;;;;1999.90;999.90;;;;;;;15.44;34.80;96581.72;5136955;27;20122;-65
2023/11/16 10:21:34;;;;;;;1999.90;999.90;;;;;;;15.47;36.04;96578.06;5136959;27;20047;-65
2023/11/16 10:24:08;;;;;;;1999.90;999.90;;;;;;;15.41;35.36;96582.75;5137128;27;20045;-66
2023/11/16 10:26:36;;;;;;;1999.90;999.90;;;;;;;15.36;35.26;96569.00;5136949;27;20043;-65
2023/11/16 10:29:03;;;;;;;1999.90;999.90;;;;;;;15.27;35.25;96578.25;5136844;27;20059;-63
2023/11/16 10:31:33;;;;;;;1999.90;999.90;;;;;;;15.31;36.33;96596.50;5136619;27;20138;-63
2023/11/16 10:34:00;;;;;;;1999.90;999.90;;;;;;;15.21;35.29;96594.41;5135852;27;20410;-63
2023/11/16 10:36:30;;;;;;;1999.90;999.90;;;;;;;15.25;35.82;96584.53;5136724;27;20048;-65
2023/11/16 10:38:58;;;;;;;1999.90;999.90;;;;;;;15.16;35.61;96578.00;5136570;27;20047;-65
2023/11/16 10:41:27;;;;;;;1999.90;999.90;;;;;;;15.12;36.56;96582.63;5136587;27;20047;-64
2023/11/16 10:43:56;;;;;;;1999.90;999.90;;;;;;;15.12;35.74;96574.72;5136577;27;20047;-63
2023/11/16 10:46:27;;;;;;;1999.90;999.90;;;;;;;15.13;36.07;96581.66;5136637;27;20767;-64
2023/11/16 10:48:56;;;;;;;1999.90;999.90;;;;;;;15.10;35.86;96578.34;5136322;27;20051;-63
2023/11/16 10:51:27;;;;;;;1999.90;999.90;;;;;;;15.08;35.66;96573.16;5136339;27;20049;-64
2023/11/16 10:53:55;;;;;;;1999.90;999.90;;;;;;;15.14;36.05;96575.44;5136274;27;20262;-63
2023/11/16 10:56:22;;;;;;;1999.90;999.90;;;;;;;15.18;35.29;96576.16;5136270;27;20051;-64
2023/11/16 10:58:51;;;;;;;1999.90;999.90;;;;;;;15.19;35.91;96572.56;5136174;27;20096;-63
2023/11/16 11:01:19;;;;;;;1999.90;999.90;;;;;;;15.19;35.35;96567.28;5136186;27;20116;-62
2023/11/16 11:03:47;;;;;;;1999.90;999.90;;;;;;;15.22;36.12;96582.06;5136182;27;20075;-64